createdAt,value
2016-12-03T00:00:10.555Z,0
2016-12-03T00:01:10.889Z,0
2016-12-03T00:02:10.269Z,0
2016-12-03T00:03:10.912Z,0
2016-12-03T00:04:10.610Z,0
2016-12-03T00:05:10.942Z,0
2016-12-03T00:06:10.645Z,0
2016-12-03T00:07:10.344Z,0
2016-12-03T00:08:10.672Z,0
2016-12-03T00:09:11.021Z,0
2016-12-03T00:10:10.384Z,0
2016-12-03T00:11:11.031Z,0
2016-12-03T00:12:10.729Z,0
2016-12-03T00:13:10.759Z,0
2016-12-03T00:14:10.781Z,0
2016-12-03T00:15:10.778Z,0
2016-12-03T00:16:11.128Z,0
2016-12-03T00:17:11.137Z,0
2016-12-03T00:18:11.459Z,0
2016-12-03T00:19:11.154Z,0
2016-12-03T00:20:10.532Z,0
2016-12-03T00:21:11.501Z,0
2016-12-03T00:22:10.569Z,0
2016-12-03T00:23:11.214Z,0
2016-12-03T00:24:11.243Z,0
2016-12-03T00:25:10.611Z,0
2016-12-03T00:26:10.945Z,0
2016-12-03T00:27:10.971Z,0
2016-12-03T00:28:11.296Z,0
2016-12-03T00:29:11.003Z,0
2016-12-03T00:30:10.684Z,0
2016-12-03T00:31:11.367Z,0
2016-12-03T00:32:11.047Z,0
2016-12-03T00:33:11.046Z,0
2016-12-03T00:34:11.067Z,0
2016-12-03T00:35:11.078Z,0
2016-12-03T00:36:11.724Z,0
2016-12-03T00:37:11.421Z,0
2016-12-03T00:38:11.440Z,0
2016-12-03T00:39:11.453Z,0
2016-12-03T00:40:11.158Z,0
2016-12-03T00:41:11.171Z,0
2016-12-03T00:42:10.863Z,0
2016-12-03T00:43:11.199Z,0
2016-12-03T00:44:11.531Z,0
2016-12-03T00:45:11.546Z,0
2016-12-03T00:46:11.872Z,0
2016-12-03T00:47:11.885Z,0
2016-12-03T00:48:11.587Z,0
2016-12-03T00:49:11.283Z,0
2016-12-03T00:50:10.983Z,0
2016-12-03T00:51:11.317Z,0
2016-12-03T00:52:11.020Z,0
2016-12-03T00:53:11.660Z,0
2016-12-03T00:54:11.994Z,0
2016-12-03T00:55:12.021Z,0
2016-12-03T00:56:12.035Z,0
2016-12-03T00:57:11.408Z,0
2016-12-03T00:58:11.106Z,0
2016-12-03T00:59:12.074Z,0
2016-12-03T01:00:11.780Z,0
2016-12-03T01:01:11.781Z,0
2016-12-03T01:02:12.115Z,0
2016-12-03T01:03:11.823Z,0
2016-12-03T01:04:12.141Z,0
2016-12-03T01:05:11.842Z,0
2016-12-03T01:06:11.543Z,0
2016-12-03T01:07:11.887Z,0
2016-12-03T01:08:11.583Z,0
2016-12-03T01:09:11.281Z,0
2016-12-03T01:10:11.597Z,0
2016-12-03T01:11:11.618Z,0
2016-12-03T01:12:11.312Z,0
2016-12-03T01:13:12.276Z,0
2016-12-03T01:14:11.976Z,0
2016-12-03T01:15:12.004Z,0
2016-12-03T01:16:12.004Z,0
2016-12-03T01:17:11.392Z,0
2016-12-03T01:18:11.721Z,0
2016-12-03T01:19:12.060Z,0
2016-12-03T01:20:12.092Z,0
2016-12-03T01:21:11.763Z,0
2016-12-03T01:22:12.129Z,0
2016-12-03T01:23:11.490Z,0
2016-12-03T01:24:12.439Z,0
2016-12-03T01:25:11.823Z,0
2016-12-03T01:26:12.476Z,0
2016-12-03T01:27:11.543Z,0
2016-12-03T01:28:11.558Z,0
2016-12-03T01:29:11.879Z,0
2016-12-03T01:30:11.585Z,0
2016-12-03T01:31:11.909Z,0
2016-12-03T01:32:11.930Z,0
2016-12-03T01:33:12.260Z,0
2016-12-03T01:34:12.683Z,0
2016-12-03T01:35:11.973Z,0
2016-12-03T01:36:11.992Z,0
2016-12-03T01:37:12.634Z,0
2016-12-03T01:38:12.331Z,0
2016-12-03T01:39:12.034Z,0
2016-12-03T01:40:12.051Z,0
2016-12-03T01:41:12.060Z,0
2016-12-03T01:42:12.398Z,0
2016-12-03T01:43:12.093Z,0
2016-12-03T01:44:12.433Z,0
2016-12-03T01:45:12.757Z,0
2016-12-03T01:46:12.782Z,0
2016-12-03T01:47:12.151Z,0
2016-12-03T01:48:12.482Z,0
2016-12-03T01:49:12.498Z,0
2016-12-03T01:50:12.511Z,0
2016-12-03T01:51:11.895Z,0
2016-12-03T01:52:12.540Z,0
2016-12-03T01:53:12.555Z,0
2016-12-03T01:54:12.581Z,0
2016-12-03T01:55:12.280Z,0
2016-12-03T01:56:12.599Z,0
2016-12-03T01:57:12.615Z,0
2016-12-03T01:58:12.972Z,0
2016-12-03T01:59:12.644Z,0
2016-12-03T02:00:12.664Z,0
2016-12-03T02:01:13.007Z,0
2016-12-03T02:02:12.376Z,0
2016-12-03T02:03:12.391Z,0
2016-12-03T02:04:12.402Z,0
2016-12-03T02:05:12.731Z,0
2016-12-03T02:06:13.064Z,0
2016-12-03T02:07:12.763Z,0
2016-12-03T02:08:12.780Z,0
2016-12-03T02:09:12.790Z,0
2016-12-03T02:10:12.518Z,0
2016-12-03T02:11:12.526Z,0
2016-12-03T02:12:13.151Z,0
2016-12-03T02:13:12.557Z,0
2016-12-03T02:14:13.184Z,0
2016-12-03T02:15:12.567Z,0
2016-12-03T02:16:12.585Z,0
2016-12-03T02:17:12.286Z,0
2016-12-03T02:18:12.929Z,0
2016-12-03T02:19:12.311Z,0
2016-12-03T02:20:13.274Z,0
2016-12-03T02:21:12.974Z,0
2016-12-03T02:22:12.986Z,0
2016-12-03T02:23:12.686Z,0
2016-12-03T02:24:12.699Z,0
2016-12-03T02:25:12.718Z,0
2016-12-03T02:26:12.730Z,0
2016-12-03T02:27:12.748Z,0
2016-12-03T02:28:13.076Z,0
2016-12-03T02:29:13.090Z,0
2016-12-03T02:30:12.476Z,0
2016-12-03T02:31:12.802Z,0
2016-12-03T02:32:12.815Z,0
2016-12-03T02:33:13.154Z,0
2016-12-03T02:34:12.536Z,0
2016-12-03T02:35:13.179Z,0
2016-12-03T02:36:12.879Z,0
2016-12-03T02:37:13.211Z,0
2016-12-03T02:38:12.928Z,0
2016-12-03T02:39:13.236Z,0
2016-12-03T02:40:12.621Z,0
2016-12-03T02:41:13.266Z,0
2016-12-03T02:42:13.304Z,0
2016-12-03T02:43:13.298Z,0
2016-12-03T02:44:13.319Z,0
2016-12-03T02:45:13.008Z,0
2016-12-03T02:46:13.043Z,0
2016-12-03T02:47:13.361Z,0
2016-12-03T02:48:13.368Z,0
2016-12-03T02:49:27.957Z,0
2016-12-03T02:50:13.118Z,0
2016-12-03T02:51:13.146Z,0
2016-12-03T02:52:13.115Z,0
2016-12-03T02:53:13.442Z,0
2016-12-03T02:54:13.170Z,0
2016-12-03T02:55:13.160Z,0
2016-12-03T02:56:13.170Z,0
2016-12-03T02:57:13.187Z,0
2016-12-03T02:58:13.517Z,0
2016-12-03T02:59:12.902Z,0
2016-12-03T03:00:13.543Z,0
2016-12-03T03:01:13.244Z,0
2016-12-03T03:02:13.582Z,0
2016-12-03T03:03:13.903Z,0
2016-12-03T03:04:13.917Z,0
2016-12-03T03:05:13.620Z,0
2016-12-03T03:06:13.320Z,0
2016-12-03T03:07:13.048Z,0
2016-12-03T03:08:13.656Z,0
2016-12-03T03:09:13.044Z,0
2016-12-03T03:10:13.379Z,0
2016-12-03T03:11:13.718Z,0
2016-12-03T03:12:13.405Z,0
2016-12-03T03:13:13.745Z,0
2016-12-03T03:14:13.763Z,0
2016-12-03T03:15:13.457Z,0
2016-12-03T03:16:14.091Z,0
2016-12-03T03:17:13.799Z,0
2016-12-03T03:18:13.830Z,0
2016-12-03T03:19:13.817Z,0
2016-12-03T03:20:14.157Z,0
2016-12-03T03:21:13.238Z,0
2016-12-03T03:22:13.549Z,0
2016-12-03T03:23:13.577Z,0
2016-12-03T03:24:13.585Z,0
2016-12-03T03:25:14.236Z,0
2016-12-03T03:26:13.919Z,0
2016-12-03T03:27:13.622Z,0
2016-12-03T03:28:13.633Z,0
2016-12-03T03:29:14.300Z,0
2016-12-03T03:30:13.976Z,0
2016-12-03T03:31:13.701Z,0
2016-12-03T03:32:14.008Z,0
2016-12-03T03:33:13.707Z,0
2016-12-03T03:34:14.351Z,0
2016-12-03T03:35:14.050Z,0
2016-12-03T03:36:14.064Z,0
2016-12-03T03:37:14.087Z,0
2016-12-03T03:38:13.804Z,0
2016-12-03T03:39:13.475Z,0
2016-12-03T03:40:14.147Z,0
2016-12-03T03:41:13.822Z,0
2016-12-03T03:42:14.154Z,0
2016-12-03T03:43:14.166Z,0
2016-12-03T03:44:14.186Z,0
2016-12-03T03:45:14.191Z,0
2016-12-03T03:46:14.206Z,0
2016-12-03T03:47:13.951Z,0
2016-12-03T03:48:13.915Z,0
2016-12-03T03:49:13.946Z,0
2016-12-03T03:50:14.265Z,0
2016-12-03T03:51:13.957Z,0
2016-12-03T03:52:14.287Z,0
2016-12-03T03:53:14.301Z,0
2016-12-03T03:54:14.318Z,0
2016-12-03T03:55:14.013Z,0
2016-12-03T03:56:14.660Z,0
2016-12-03T03:57:14.042Z,0
2016-12-03T03:58:13.739Z,0
2016-12-03T03:59:14.092Z,0
2016-12-03T04:00:14.403Z,0
2016-12-03T04:01:13.785Z,0
2016-12-03T04:02:13.799Z,0
2016-12-03T04:03:14.124Z,0
2016-12-03T04:04:13.824Z,0
2016-12-03T04:05:14.161Z,0
2016-12-03T04:06:14.170Z,0
2016-12-03T04:07:14.499Z,0
2016-12-03T04:08:13.878Z,0
2016-12-03T04:09:14.542Z,0
2016-12-03T04:10:14.227Z,0
2016-12-03T04:11:14.232Z,0
2016-12-03T04:12:14.593Z,0
2016-12-03T04:13:13.953Z,0
2016-12-03T04:14:14.279Z,0
2016-12-03T04:15:14.288Z,0
2016-12-03T04:16:14.300Z,0
2016-12-03T04:17:14.629Z,0
2016-12-03T04:18:14.649Z,0
2016-12-03T04:19:14.364Z,0
2016-12-03T04:20:14.990Z,0
2016-12-03T04:21:14.370Z,0
2016-12-03T04:22:14.384Z,0
2016-12-03T04:23:14.085Z,0
2016-12-03T04:24:14.416Z,0
2016-12-03T04:25:14.422Z,0
2016-12-03T04:26:14.439Z,0
2016-12-03T04:27:14.771Z,0
2016-12-03T04:28:14.783Z,0
2016-12-03T04:29:15.119Z,0
2016-12-03T04:30:14.494Z,0
2016-12-03T04:31:14.516Z,0
2016-12-03T04:32:14.205Z,0
2016-12-03T04:33:14.539Z,0
2016-12-03T04:34:14.558Z,0
2016-12-03T04:35:14.567Z,0
2016-12-03T04:36:14.889Z,0
2016-12-03T04:37:14.591Z,0
2016-12-03T04:38:14.618Z,0
2016-12-03T04:39:14.932Z,0
2016-12-03T04:40:14.634Z,0
2016-12-03T04:41:14.349Z,0
2016-12-03T04:42:14.659Z,0
2016-12-03T04:43:14.676Z,0
2016-12-03T04:44:15.002Z,0
2016-12-03T04:45:14.390Z,0
2016-12-03T04:46:14.713Z,0
2016-12-03T04:47:14.414Z,0
2016-12-03T04:48:15.115Z,0
2016-12-03T04:49:15.073Z,0
2016-12-03T04:50:15.084Z,0
2016-12-03T04:51:15.411Z,0
2016-12-03T04:52:15.129Z,0
2016-12-03T04:53:15.135Z,0
2016-12-03T04:54:14.821Z,0
2016-12-03T04:55:14.837Z,0
2016-12-03T04:56:14.849Z,0
2016-12-03T04:57:15.179Z,0
2016-12-03T04:58:14.877Z,0
2016-12-03T04:59:15.244Z,0
2016-12-03T05:00:14.912Z,0
2016-12-03T05:01:15.546Z,0
2016-12-03T05:02:15.583Z,0
2016-12-03T05:03:14.951Z,0
2016-12-03T05:04:15.598Z,0
2016-12-03T05:05:15.283Z,0
2016-12-03T05:06:15.299Z,0
2016-12-03T05:07:15.321Z,0
2016-12-03T05:08:15.015Z,0
2016-12-03T05:09:15.034Z,0
2016-12-03T05:10:15.041Z,0
2016-12-03T05:11:15.711Z,0
2016-12-03T05:12:15.068Z,0
2016-12-03T05:13:15.397Z,0
2016-12-03T05:14:15.432Z,0
2016-12-03T05:15:15.110Z,0
2016-12-03T05:16:15.439Z,0
2016-12-03T05:17:15.450Z,0
2016-12-03T05:18:15.459Z,0
2016-12-03T05:19:15.476Z,0
2016-12-03T05:20:15.491Z,0
2016-12-03T05:21:15.501Z,0
2016-12-03T05:22:15.201Z,0
2016-12-03T05:23:15.214Z,0
2016-12-03T05:24:15.228Z,0
2016-12-03T05:25:15.250Z,0
2016-12-03T05:26:15.571Z,0
2016-12-03T05:27:15.587Z,0
2016-12-03T05:28:15.606Z,0
2016-12-03T05:29:15.608Z,0
2016-12-03T05:30:15.311Z,0
2016-12-03T05:31:15.636Z,0
2016-12-03T05:32:15.332Z,0
2016-12-03T05:33:15.664Z,0
2016-12-03T05:34:15.672Z,0
2016-12-03T05:35:15.373Z,0
2016-12-03T05:36:15.390Z,0
2016-12-03T05:37:15.715Z,0
2016-12-03T05:38:15.413Z,0
2016-12-03T05:39:15.426Z,0
2016-12-03T05:40:16.071Z,0
2016-12-03T05:41:15.455Z,0
2016-12-03T05:42:15.468Z,0
2016-12-03T05:43:15.481Z,0
2016-12-03T05:44:15.488Z,0
2016-12-03T05:45:15.865Z,0
2016-12-03T05:46:15.849Z,0
2016-12-03T05:47:15.219Z,0
2016-12-03T05:48:15.547Z,0
2016-12-03T05:49:15.875Z,0
2016-12-03T05:50:15.579Z,0
2016-12-03T05:51:15.930Z,0
2016-12-03T05:52:15.603Z,0
2016-12-03T05:53:15.609Z,0
2016-12-03T05:54:15.652Z,0
2016-12-03T05:55:15.950Z,0
2016-12-03T05:56:15.968Z,0
2016-12-03T05:57:15.979Z,0
2016-12-03T05:58:15.677Z,0
2016-12-03T05:59:15.709Z,0
2016-12-03T06:00:15.393Z,0
2016-12-03T06:01:15.719Z,0
2016-12-03T06:02:15.410Z,0
2016-12-03T06:03:16.061Z,0
2016-12-03T06:04:16.085Z,0
2016-12-03T06:05:16.084Z,0
2016-12-03T06:06:15.806Z,0
2016-12-03T06:07:15.818Z,0
2016-12-03T06:08:16.438Z,0
2016-12-03T06:09:16.141Z,0
2016-12-03T06:10:16.467Z,0
2016-12-03T06:11:15.856Z,0
2016-12-03T06:12:15.548Z,0
2016-12-03T06:13:16.194Z,0
2016-12-03T06:14:16.521Z,0
2016-12-03T06:15:16.220Z,0
2016-12-03T06:16:15.600Z,0
2016-12-03T06:17:15.611Z,4
2016-12-03T06:18:16.305Z,4
2016-12-03T06:19:15.953Z,0
2016-12-03T06:20:16.284Z,0
2016-12-03T06:21:16.764Z,4
2016-12-03T06:22:16.336Z,4
2016-12-03T06:23:16.021Z,0
2016-12-03T06:24:15.702Z,4
2016-12-03T06:25:16.370Z,4
2016-12-03T06:26:15.741Z,4
2016-12-03T06:27:15.756Z,4
2016-12-03T06:28:16.081Z,4
2016-12-03T06:29:16.396Z,8
2016-12-03T06:30:16.736Z,8
2016-12-03T06:31:16.429Z,4
2016-12-03T06:32:16.437Z,8
2016-12-03T06:33:16.458Z,8
2016-12-03T06:34:16.467Z,8
2016-12-03T06:35:16.161Z,12
2016-12-03T06:36:16.176Z,12
2016-12-03T06:37:16.513Z,16
2016-12-03T06:38:16.513Z,16
2016-12-03T06:39:16.528Z,16
2016-12-03T06:40:16.880Z,24
2016-12-03T06:41:16.553Z,24
2016-12-03T06:42:16.274Z,24
2016-12-03T06:43:16.581Z,28
2016-12-03T06:44:16.279Z,32
2016-12-03T06:45:16.919Z,32
2016-12-03T06:46:15.991Z,32
2016-12-03T06:47:16.004Z,36
2016-12-03T06:48:16.643Z,40
2016-12-03T06:49:16.372Z,44
2016-12-03T06:50:16.359Z,44
2016-12-03T06:51:16.686Z,48
2016-12-03T06:52:16.384Z,52
2016-12-03T06:53:16.713Z,56
2016-12-03T06:54:16.727Z,60
2016-12-03T06:55:16.747Z,64
2016-12-03T06:56:16.747Z,68
2016-12-03T06:57:16.134Z,72
2016-12-03T06:58:16.791Z,76
2016-12-03T06:59:16.154Z,80
2016-12-03T07:00:16.802Z,88
2016-12-03T07:01:16.183Z,92
2016-12-03T07:02:16.512Z,96
2016-12-03T07:03:16.221Z,104
2016-12-03T07:04:16.851Z,108
2016-12-03T07:05:16.552Z,116
2016-12-03T07:06:16.246Z,124
2016-12-03T07:07:17.206Z,132
2016-12-03T07:08:16.270Z,140
2016-12-03T07:09:16.604Z,144
2016-12-03T07:10:16.302Z,144
2016-12-03T07:11:16.632Z,144
2016-12-03T07:12:16.641Z,152
2016-12-03T07:13:17.292Z,168
2016-12-03T07:14:16.665Z,188
2016-12-03T07:15:16.678Z,232
2016-12-03T07:16:16.694Z,248
2016-12-03T07:17:16.707Z,284
2016-12-03T07:18:17.031Z,300
2016-12-03T07:19:16.759Z,268
2016-12-03T07:20:17.059Z,292
2016-12-03T07:21:16.765Z,284
2016-12-03T07:22:17.401Z,292
2016-12-03T07:23:16.798Z,292
2016-12-03T07:24:16.491Z,292
2016-12-03T07:25:16.806Z,296
2016-12-03T07:26:17.468Z,312
2016-12-03T07:27:17.149Z,324
2016-12-03T07:28:17.170Z,364
2016-12-03T07:29:16.859Z,376
2016-12-03T07:30:17.195Z,392
2016-12-03T07:31:17.197Z,424
2016-12-03T07:32:17.233Z,424
2016-12-03T07:33:16.596Z,436
2016-12-03T07:34:17.240Z,432
2016-12-03T07:35:16.943Z,408
2016-12-03T07:36:17.269Z,444
2016-12-03T07:37:16.644Z,460
2016-12-03T07:38:17.025Z,464
2016-12-03T07:39:16.988Z,472
2016-12-03T07:40:17.317Z,448
2016-12-03T07:41:16.721Z,484
2016-12-03T07:42:17.056Z,488
2016-12-03T07:43:17.355Z,408
2016-12-03T07:44:16.737Z,372
2016-12-03T07:45:17.087Z,304
2016-12-03T07:46:17.713Z,240
2016-12-03T07:47:17.111Z,232
2016-12-03T07:48:17.101Z,244
2016-12-03T07:49:16.799Z,264
2016-12-03T07:50:17.472Z,252
2016-12-03T07:51:17.143Z,252
2016-12-03T07:52:17.487Z,224
2016-12-03T07:53:17.484Z,284
2016-12-03T07:54:17.176Z,320
2016-12-03T07:55:17.528Z,352
2016-12-03T07:56:17.543Z,348
2016-12-03T07:57:16.906Z,284
2016-12-03T07:58:17.227Z,268
2016-12-03T07:59:17.566Z,288
2016-12-03T08:00:17.259Z,308
2016-12-03T08:01:17.592Z,248
2016-12-03T08:02:17.283Z,228
2016-12-03T08:03:17.608Z,272
2016-12-03T08:04:17.623Z,268
2016-12-03T08:05:17.639Z,220
2016-12-03T08:06:17.660Z,228
2016-12-03T08:07:17.037Z,224
2016-12-03T08:08:17.050Z,232
2016-12-03T08:09:17.372Z,248
2016-12-03T08:10:17.384Z,276
2016-12-03T08:11:17.398Z,340
2016-12-03T08:12:17.411Z,500
2016-12-03T08:13:17.106Z,512
2016-12-03T08:14:17.117Z,468
2016-12-03T08:15:17.471Z,404
2016-12-03T08:16:17.469Z,480
2016-12-03T08:17:17.790Z,440
2016-12-03T08:18:17.801Z,300
2016-12-03T08:19:17.505Z,280
2016-12-03T08:20:17.830Z,320
2016-12-03T08:21:17.527Z,288
2016-12-03T08:22:18.171Z,332
2016-12-03T08:23:17.561Z,516
2016-12-03T08:24:17.566Z,436
2016-12-03T08:25:17.263Z,332
2016-12-03T08:26:17.276Z,360
2016-12-03T08:27:17.924Z,364
2016-12-03T08:28:17.967Z,324
2016-12-03T08:29:17.648Z,420
2016-12-03T08:30:17.341Z,344
2016-12-03T08:31:18.286Z,352
2016-12-03T08:32:17.982Z,460
2016-12-03T08:33:17.998Z,524
2016-12-03T08:34:17.379Z,464
2016-12-03T08:35:17.713Z,444
2016-12-03T08:36:17.411Z,320
2016-12-03T08:37:18.050Z,380
2016-12-03T08:38:17.743Z,632
2016-12-03T08:39:18.087Z,620
2016-12-03T08:40:17.767Z,604
2016-12-03T08:41:17.782Z,548
2016-12-03T08:42:18.112Z,708
2016-12-03T08:43:18.153Z,704
2016-12-03T08:44:18.459Z,524
2016-12-03T08:45:18.153Z,452
2016-12-03T08:46:18.166Z,444
2016-12-03T08:47:18.183Z,372
2016-12-03T08:48:18.189Z,496
2016-12-03T08:49:18.523Z,556
2016-12-03T08:50:18.213Z,380
2016-12-03T08:51:17.919Z,476
2016-12-03T08:52:17.619Z,620
2016-12-03T08:53:17.940Z,480
2016-12-03T08:54:18.270Z,360
2016-12-03T08:55:18.597Z,484
2016-12-03T08:56:17.976Z,460
2016-12-03T08:57:17.992Z,480
2016-12-03T08:58:18.318Z,504
2016-12-03T08:59:18.657Z,676
2016-12-03T09:00:18.033Z,620
2016-12-03T09:01:18.060Z,488
2016-12-03T09:02:18.687Z,536
2016-12-03T09:03:18.067Z,476
2016-12-03T09:04:18.401Z,508
2016-12-03T09:05:18.723Z,500
2016-12-03T09:06:18.421Z,400
2016-12-03T09:07:17.809Z,404
2016-12-03T09:08:18.141Z,400
2016-12-03T09:09:18.461Z,340
2016-12-03T09:10:18.476Z,332
2016-12-03T09:11:18.174Z,336
2016-12-03T09:12:17.875Z,328
2016-12-03T09:13:18.203Z,272
2016-12-03T09:14:18.850Z,300
2016-12-03T09:15:18.566Z,364
2016-12-03T09:16:18.870Z,352
2016-12-03T09:17:18.568Z,444
2016-12-03T09:18:18.584Z,460
2016-12-03T09:19:18.280Z,316
2016-12-03T09:20:17.979Z,416
2016-12-03T09:21:18.308Z,416
2016-12-03T09:22:18.642Z,304
2016-12-03T09:23:18.654Z,332
2016-12-03T09:24:18.975Z,332
2016-12-03T09:25:18.685Z,308
2016-12-03T09:26:18.378Z,344
2016-12-03T09:27:18.383Z,332
2016-12-03T09:28:18.710Z,336
2016-12-03T09:29:18.416Z,328
2016-12-03T09:30:18.424Z,324
2016-12-03T09:31:18.441Z,276
2016-12-03T09:32:18.140Z,280
2016-12-03T09:33:18.801Z,308
2016-12-03T09:34:18.474Z,340
2016-12-03T09:35:18.176Z,360
2016-12-03T09:36:18.820Z,368
2016-12-03T09:37:18.538Z,356
2016-12-03T09:38:18.848Z,360
2016-12-03T09:39:18.552Z,404
2016-12-03T09:40:18.880Z,400
2016-12-03T09:41:18.884Z,400
2016-12-03T09:42:18.582Z,476
2016-12-03T09:43:18.913Z,520
2016-12-03T09:44:18.612Z,576
2016-12-03T09:45:18.626Z,564
2016-12-03T09:46:18.634Z,648
2016-12-03T09:47:18.657Z,856
2016-12-03T09:48:18.978Z,1028
2016-12-03T09:49:18.994Z,1060
2016-12-03T09:50:19.003Z,1008
2016-12-03T09:51:18.384Z,896
2016-12-03T09:52:19.348Z,888
2016-12-03T09:53:18.411Z,868
2016-12-03T09:54:19.056Z,780
2016-12-03T09:55:19.073Z,760
2016-12-03T09:56:19.088Z,876
2016-12-03T09:57:18.465Z,636
2016-12-03T09:58:18.792Z,612
2016-12-03T09:59:19.125Z,652
2016-12-03T10:00:19.135Z,576
2016-12-03T10:01:19.162Z,460
2016-12-03T10:02:18.854Z,500
2016-12-03T10:03:19.180Z,464
2016-12-03T10:04:18.877Z,504
2016-12-03T10:05:19.202Z,560
2016-12-03T10:06:19.215Z,544
2016-12-03T10:07:18.915Z,532
2016-12-03T10:08:18.610Z,612
2016-12-03T10:09:18.939Z,620
2016-12-03T10:10:19.272Z,696
2016-12-03T10:11:18.975Z,744
2016-12-03T10:12:19.616Z,684
2016-12-03T10:13:19.016Z,712
2016-12-03T10:14:19.008Z,1052
2016-12-03T10:15:19.026Z,748
2016-12-03T10:16:19.347Z,644
2016-12-03T10:17:19.059Z,576
2016-12-03T10:18:19.060Z,696
2016-12-03T10:19:18.760Z,908
2016-12-03T10:20:19.719Z,996
2016-12-03T10:21:19.419Z,784
2016-12-03T10:22:19.759Z,2164
2016-12-03T10:23:19.135Z,796
2016-12-03T10:24:19.139Z,1308
2016-12-03T10:25:19.474Z,740
2016-12-03T10:26:19.801Z,640
2016-12-03T10:27:19.211Z,628
2016-12-03T10:28:19.829Z,656
2016-12-03T10:29:19.209Z,688
2016-12-03T10:30:18.906Z,748
2016-12-03T10:31:19.236Z,856
2016-12-03T10:32:19.249Z,760
2016-12-03T10:33:19.587Z,772
2016-12-03T10:34:19.638Z,2696
2016-12-03T10:35:19.929Z,1528
2016-12-03T10:36:19.308Z,1092
2016-12-03T10:37:19.324Z,988
2016-12-03T10:38:19.649Z,2648
2016-12-03T10:39:19.037Z,2656
2016-12-03T10:40:19.361Z,3132
2016-12-03T10:41:19.690Z,1672
2016-12-03T10:42:19.390Z,3232
2016-12-03T10:43:19.723Z,3268
2016-12-03T10:44:19.418Z,3252
2016-12-03T10:45:19.114Z,3032
2016-12-03T10:46:19.443Z,2768
2016-12-03T10:47:20.116Z,2500
2016-12-03T10:48:19.789Z,2568
2016-12-03T10:49:19.489Z,2040
2016-12-03T10:50:19.819Z,2052
2016-12-03T10:51:19.833Z,2152
2016-12-03T10:52:19.540Z,2196
2016-12-03T10:53:19.872Z,2060
2016-12-03T10:54:19.879Z,2204
2016-12-03T10:55:19.895Z,2096
2016-12-03T10:56:19.596Z,2040
2016-12-03T10:57:19.290Z,2064
2016-12-03T10:58:19.619Z,2084
2016-12-03T10:59:19.639Z,1840
2016-12-03T11:00:19.341Z,2148
2016-12-03T11:01:19.985Z,2152
2016-12-03T11:02:20.315Z,2068
2016-12-03T11:03:20.012Z,2012
2016-12-03T11:04:20.025Z,2260
2016-12-03T11:05:20.045Z,2120
2016-12-03T11:06:20.391Z,996
2016-12-03T11:07:20.398Z,1020
2016-12-03T11:08:20.089Z,1776
2016-12-03T11:09:20.135Z,1036
2016-12-03T11:10:20.141Z,1948
2016-12-03T11:11:20.154Z,1288
2016-12-03T11:12:20.152Z,1900
2016-12-03T11:13:19.853Z,1736
2016-12-03T11:14:19.574Z,1964
2016-12-03T11:15:19.883Z,2096
2016-12-03T11:16:19.913Z,2084
2016-12-03T11:17:20.226Z,1920
2016-12-03T11:18:19.933Z,2012
2016-12-03T11:19:19.629Z,2040
2016-12-03T11:20:20.292Z,2084
2016-12-03T11:21:20.302Z,2132
2016-12-03T11:22:20.315Z,2072
2016-12-03T11:23:20.470Z,2064
2016-12-03T11:24:20.023Z,2064
2016-12-03T11:25:20.357Z,2032
2016-12-03T11:26:20.577Z,2028
2016-12-03T11:27:20.390Z,2068
2016-12-03T11:28:19.775Z,2076
2016-12-03T11:29:20.109Z,2092
2016-12-03T11:30:20.755Z,1976
2016-12-03T11:31:20.458Z,1992
2016-12-03T11:32:20.490Z,1704
2016-12-03T11:33:20.173Z,2000
2016-12-03T11:34:19.873Z,1988
2016-12-03T11:35:20.522Z,1856
2016-12-03T11:36:20.258Z,992
2016-12-03T11:37:20.242Z,792
2016-12-03T11:38:20.889Z,2052
2016-12-03T11:39:20.272Z,1912
2016-12-03T11:40:20.925Z,1936
2016-12-03T11:41:19.991Z,1960
2016-12-03T11:42:20.318Z,1932
2016-12-03T11:43:20.655Z,1992
2016-12-03T11:44:20.056Z,2040
2016-12-03T11:45:20.385Z,2028
2016-12-03T11:46:20.702Z,1988
2016-12-03T11:47:20.717Z,1960
2016-12-03T11:48:20.797Z,1956
2016-12-03T11:49:21.070Z,2024
2016-12-03T11:50:20.449Z,1796
2016-12-03T11:51:20.469Z,1960
2016-12-03T11:52:20.485Z,1992
2016-12-03T11:53:21.158Z,1952
2016-12-03T11:54:20.205Z,752
2016-12-03T11:55:20.229Z,1992
2016-12-03T11:56:20.865Z,1624
2016-12-03T11:57:21.211Z,616
2016-12-03T11:58:20.592Z,1936
2016-12-03T11:59:21.242Z,1884
2016-12-03T12:00:20.936Z,1656
2016-12-03T12:01:20.635Z,1368
2016-12-03T12:02:21.285Z,1860
2016-12-03T12:03:20.678Z,1960
2016-12-03T12:04:21.005Z,1820
2016-12-03T12:05:20.709Z,1804
2016-12-03T12:06:21.039Z,1792
2016-12-03T12:07:20.741Z,1800
2016-12-03T12:08:20.440Z,1780
2016-12-03T12:09:21.407Z,1764
2016-12-03T12:10:21.428Z,1756
2016-12-03T12:11:20.810Z,1732
2016-12-03T12:12:20.824Z,1712
2016-12-03T12:13:20.844Z,1684
2016-12-03T12:14:20.879Z,1724
2016-12-03T12:15:21.190Z,1680
2016-12-03T12:16:20.888Z,1644
2016-12-03T12:17:21.224Z,1700
2016-12-03T12:18:20.940Z,1676
2016-12-03T12:19:21.258Z,1600
2016-12-03T12:20:21.283Z,1676
2016-12-03T12:21:20.980Z,1672
2016-12-03T12:22:20.993Z,1660
2016-12-03T12:23:21.328Z,1648
2016-12-03T12:24:21.351Z,1652
2016-12-03T12:25:21.046Z,1656
2016-12-03T12:26:21.697Z,1668
2016-12-03T12:27:20.769Z,1644
2016-12-03T12:28:21.103Z,1632
2016-12-03T12:29:21.129Z,1620
2016-12-03T12:30:21.767Z,1628
2016-12-03T12:31:21.159Z,1608
2016-12-03T12:32:21.486Z,1604
2016-12-03T12:33:21.188Z,1596
2016-12-03T12:34:21.521Z,1588
2016-12-03T12:35:21.856Z,1564
2016-12-03T12:36:21.243Z,1572
2016-12-03T12:37:21.886Z,1556
2016-12-03T12:38:21.361Z,1540
2016-12-03T12:39:21.612Z,1520
2016-12-03T12:40:21.313Z,1508
2016-12-03T12:41:21.655Z,1516
2016-12-03T12:42:21.029Z,1516
2016-12-03T12:43:21.368Z,1488
2016-12-03T12:44:21.405Z,1492
2016-12-03T12:45:21.731Z,1464
2016-12-03T12:46:21.113Z,1456
2016-12-03T12:47:21.451Z,1484
2016-12-03T12:48:21.764Z,1432
2016-12-03T12:49:21.467Z,1456
2016-12-03T12:50:21.835Z,1464
2016-12-03T12:51:21.515Z,1400
2016-12-03T12:52:21.517Z,1452
2016-12-03T12:53:21.863Z,1400
2016-12-03T12:54:21.886Z,1424
2016-12-03T12:55:21.569Z,1372
2016-12-03T12:56:21.905Z,1404
2016-12-03T12:57:22.256Z,1372
2016-12-03T12:58:21.396Z,1388
2016-12-03T12:59:22.298Z,1352
2016-12-03T13:00:21.664Z,1392
2016-12-03T13:01:21.675Z,1372
2016-12-03T13:02:21.694Z,1356
2016-12-03T13:03:22.351Z,1364
2016-12-03T13:04:22.049Z,1284
2016-12-03T13:05:22.062Z,1324
2016-12-03T13:06:21.447Z,1300
2016-12-03T13:07:21.471Z,456
2016-12-03T13:08:21.795Z,1280
2016-12-03T13:09:22.135Z,1272
2016-12-03T13:10:21.828Z,1284
2016-12-03T13:11:22.482Z,1260
2016-12-03T13:12:21.867Z,1236
2016-12-03T13:13:22.204Z,1212
2016-12-03T13:14:21.904Z,1188
2016-12-03T13:15:22.237Z,1172
2016-12-03T13:16:22.260Z,1260
2016-12-03T13:17:21.957Z,1000
2016-12-03T13:18:21.657Z,756
2016-12-03T13:19:22.651Z,1244
2016-12-03T13:20:22.639Z,684
2016-12-03T13:21:21.703Z,804
2016-12-03T13:22:22.354Z,924
2016-12-03T13:23:22.066Z,828
2016-12-03T13:24:22.077Z,880
2016-12-03T13:25:22.404Z,1048
2016-12-03T13:26:22.441Z,1044
2016-12-03T13:27:22.777Z,900
2016-12-03T13:28:22.456Z,1020
2016-12-03T13:29:21.865Z,1016
2016-12-03T13:30:22.822Z,936
2016-12-03T13:31:21.909Z,512
2016-12-03T13:32:22.524Z,420
2016-12-03T13:33:22.261Z,432
2016-12-03T13:34:21.940Z,424
2016-12-03T13:35:22.292Z,392
2016-12-03T13:36:22.910Z,360
2016-12-03T13:37:22.334Z,260
2016-12-03T13:38:22.649Z,232
2016-12-03T13:39:22.683Z,236
2016-12-03T13:40:22.347Z,244
2016-12-03T13:41:22.070Z,316
2016-12-03T13:42:22.409Z,260
2016-12-03T13:43:22.740Z,272
2016-12-03T13:44:22.480Z,516
2016-12-03T13:45:22.442Z,304
2016-12-03T13:46:22.764Z,524
2016-12-03T13:47:22.778Z,284
2016-12-03T13:48:22.803Z,764
2016-12-03T13:49:22.812Z,364
2016-12-03T13:50:22.849Z,796
2016-12-03T13:51:22.528Z,792
2016-12-03T13:52:22.551Z,596
2016-12-03T13:53:22.874Z,656
2016-12-03T13:54:22.916Z,548
2016-12-03T13:55:22.911Z,332
2016-12-03T13:56:22.926Z,308
2016-12-03T13:57:23.262Z,300
2016-12-03T13:58:22.634Z,300
2016-12-03T13:59:22.657Z,348
2016-12-03T14:00:22.671Z,300
2016-12-03T14:01:23.007Z,272
2016-12-03T14:02:22.382Z,392
2016-12-03T14:03:22.406Z,260
2016-12-03T14:04:23.051Z,324
2016-12-03T14:05:22.746Z,276
2016-12-03T14:06:22.463Z,372
2016-12-03T14:07:23.101Z,452
2016-12-03T14:08:22.802Z,256